Terminal Aerodrome Forecast
Issued by NWS

Home | Current Version | Previous Version | Text Only | Print | Product List | Glossary On
Versions: 1 2 3 4 5 6 7 8 9 10 11 12 13 14 15 16
201
FTPA31 PHFO 240810 AAA
TAFHNY
TAF AMD
PHNY 240810Z 2408/2506 06011G15KT P6SM -SHRA SCT008 BKN035
     FM241800 16014KT 4SM -SHRA SCT010 BKN025
     FM250500 16011G20KT P6SM SCT010 BKN035=

USA.gov is the U.S. government's official web portal to all federal, state and local government web resources and services.